Time;durP1;ratioP1;P1;durP2;ratioP2;P2;SDS_P1;SDS_P2;PMS_P1;PMS_P2;Temp;Humidity;BMP_temperature;BMP_pressure;BME280_temperature;BME280_humidity;BME280_pressure;Samples;Min_cycle;Max_cycle;Signal;HPM_P1;HPM_P2
2024/04/05 00:00:16;;;;;;;4.00;2.80;;;;;;;8.12;100.00;100935.67;105211;1268;72847;-75
2024/04/05 00:02:44;;;;;;;8.20;2.80;;;;;;;8.14;100.00;100935.59;105256;1266;63953;-75
2024/04/05 00:05:15;;;;;;;3.00;2.70;;;;;;;8.16;100.00;100936.05;105179;1266;72529;-76
2024/04/05 00:07:41;;;;;;;2.50;2.00;;;;;;;8.17;100.00;100935.61;104948;1266;60439;-77
2024/04/05 00:10:09;;;;;;;4.70;2.60;;;;;;;8.16;100.00;100936.71;105026;1266;60354;-75
2024/04/05 00:12:36;;;;;;;2.80;2.50;;;;;;;8.16;100.00;100934.81;105520;1260;73829;-75
2024/04/05 00:15:09;;;;;;;6.70;3.00;;;;;;;8.16;100.00;100938.27;105564;1269;63911;-74
2024/04/05 00:17:36;;;;;;;4.90;3.20;;;;;;;8.16;100.00;100941.58;105733;1259;72697;-73
2024/04/05 00:20:03;;;;;;;9.00;4.50;;;;;;;8.16;100.00;100941.27;105463;1257;60478;-76
2024/04/05 00:22:30;;;;;;;8.10;5.20;;;;;;;8.14;100.00;100947.44;105523;1258;60453;-76
2024/04/05 00:24:57;;;;;;;8.10;4.30;;;;;;;8.12;100.00;100949.98;105574;1260;73821;-75
2024/04/05 00:27:23;;;;;;;8.00;5.40;;;;;;;8.11;100.00;100951.73;105603;1259;63749;-75
2024/04/05 00:29:50;;;;;;;9.90;4.50;;;;;;;8.12;100.00;100953.27;105731;1259;72643;-73
2024/04/05 00:32:17;;;;;;;10.10;5.30;;;;;;;8.10;100.00;100951.41;105596;1259;60572;-75
2024/04/05 00:34:44;;;;;;;10.20;5.20;;;;;;;8.09;100.00;100954.60;105552;1261;60515;-75
2024/04/05 00:37:11;;;;;;;9.20;5.10;;;;;;;8.09;100.00;100957.04;105525;1260;60525;-76
2024/04/05 00:39:38;;;;;;;7.40;4.40;;;;;;;8.09;100.00;100950.25;105712;1259;62477;-76
2024/04/05 00:42:05;;;;;;;6.70;4.60;;;;;;;8.07;100.00;100956.61;105623;1259;72732;-75
2024/04/05 00:44:31;;;;;;;6.90;4.60;;;;;;;8.04;100.00;100960.38;105686;1260;60581;-74
2024/04/05 00:47:00;;;;;;;10.00;5.50;;;;;;;8.03;100.00;100957.98;105558;1260;60591;-74
2024/04/05 00:49:27;;;;;;;8.50;4.40;;;;;;;8.00;100.00;100957.41;105506;1258;73802;-74
2024/04/05 00:51:55;;;;;;;6.60;4.50;;;;;;;7.99;100.00;100958.34;105626;1259;63942;-73
2024/04/05 00:54:22;;;;;;;9.30;4.50;;;;;;;7.99;100.00;100955.90;105478;1257;71264;-75
2024/04/05 00:56:48;;;;;;;6.20;3.90;;;;;;;7.95;100.00;100954.36;105533;1259;60715;-74
2024/04/05 00:59:16;;;;;;;5.50;4.10;;;;;;;7.96;100.00;100957.47;105394;1260;60445;-73
2024/04/05 01:01:43;;;;;;;6.90;4.90;;;;;;;7.93;100.00;100958.63;105475;1259;73846;-75
2024/04/05 01:04:10;;;;;;;7.10;4.20;;;;;;;7.90;100.00;100956.85;105363;1263;63689;-73
2024/04/05 01:06:37;;;;;;;7.50;4.40;;;;;;;7.85;100.00;100958.79;105605;1257;71299;-73
2024/04/05 01:09:06;;;;;;;5.00;3.90;;;;;;;7.82;100.00;100960.67;106012;1255;60534;-74
2024/04/05 01:11:32;;;;;;;6.20;3.70;;;;;;;7.78;100.00;100963.09;105964;1251;60517;-77
2024/04/05 01:14:00;;;;;;;5.90;3.60;;;;;;;7.77;100.00;100962.10;106207;1251;72373;-72
2024/04/05 01:16:27;;;;;;;6.80;5.10;;;;;;;7.75;100.00;100965.65;105889;1254;63548;-74
2024/04/05 01:18:56;;;;;;;25.10;17.00;;;;;;;7.72;100.00;100970.14;105919;1251;72667;-75
2024/04/05 01:21:23;;;;;;;45.90;26.70;;;;;;;7.69;100.00;100973.23;106000;1254;60502;-75
2024/04/05 01:23:49;;;;;;;77.10;35.00;;;;;;;7.65;100.00;100973.19;105930;1256;60441;-76
2024/04/05 01:26:16;;;;;;;38.50;20.50;;;;;;;7.61;100.00;100974.94;105955;1254;73893;-75
2024/04/05 01:28:43;;;;;;;106.80;46.60;;;;;;;7.59;100.00;100976.09;105856;1254;60534;-77
2024/04/05 01:31:09;;;;;;;97.30;41.80;;;;;;;7.55;100.00;100979.56;105810;1251;71223;-76
2024/04/05 01:33:36;;;;;;;87.80;40.10;;;;;;;7.49;100.00;100979.11;105963;1251;60547;-76
2024/04/05 01:36:03;;;;;;;46.00;21.50;;;;;;;7.43;100.00;100977.44;106084;1251;60446;-74
2024/04/05 01:38:29;;;;;;;52.20;25.30;;;;;;;7.37;100.00;100977.49;105936;1251;72883;-75
2024/04/05 01:40:56;;;;;;;49.40;24.20;;;;;;;7.33;100.00;100985.86;106037;1254;63784;-74
2024/04/05 01:43:23;;;;;;;56.10;27.60;;;;;;;7.28;100.00;100985.70;105867;1254;72733;-75
2024/04/05 01:45:50;;;;;;;47.40;25.10;;;;;;;7.23;100.00;100988.16;105949;1254;60424;-74
2024/04/05 01:48:17;;;;;;;27.20;13.70;;;;;;;7.18;100.00;100989.20;105959;1255;60546;-74
2024/04/05 01:50:45;;;;;;;46.20;24.00;;;;;;;7.15;100.00;100991.98;105849;1251;73609;-76
2024/04/05 01:53:11;;;;;;;22.80;12.50;;;;;;;7.10;100.00;100992.66;106048;1254;62558;-75
2024/04/05 01:55:38;;;;;;;36.40;20.20;;;;;;;7.06;100.00;100999.80;105855;1254;60496;-74
2024/04/05 01:58:05;;;;;;;41.50;24.10;;;;;;;7.01;100.00;101001.18;106123;1254;60553;-76
2024/04/05 02:00:31;;;;;;;38.50;20.20;;;;;;;6.97;100.00;101000.67;105806;1252;60552;-77
2024/04/05 02:02:58;;;;;;;38.60;25.70;;;;;;;6.93;100.00;101000.30;106003;1251;73953;-75
2024/04/05 02:05:24;;;;;;;33.50;20.00;;;;;;;6.88;100.00;101002.41;106010;1255;62383;-74
2024/04/05 02:07:51;;;;;;;43.40;23.40;;;;;;;6.83;100.00;101003.98;105961;1251;72484;-75
2024/04/05 02:10:18;;;;;;;46.30;27.60;;;;;;;6.79;100.00;101003.25;105986;1253;60485;-74
2024/04/05 02:12:44;;;;;;;26.70;16.20;;;;;;;6.76;100.00;101002.86;105795;1250;60501;-75
2024/04/05 02:15:11;;;;;;;8.90;6.60;;;;;;;6.72;100.00;101006.33;105863;1251;60533;-76
2024/04/05 02:17:38;;;;;;;10.70;6.60;;;;;;;6.66;100.00;101007.21;105827;1254;63950;-76
2024/04/05 02:20:05;;;;;;;7.10;5.80;;;;;;;6.62;100.00;101007.18;105822;1250;60575;-76
2024/04/05 02:22:33;;;;;;;9.60;5.70;;;;;;;6.59;100.00;101008.00;105970;1254;60444;-73
2024/04/05 02:25:01;;;;;;;9.90;7.50;;;;;;;6.55;100.00;101006.95;105885;1251;60444;-75
2024/04/05 02:27:28;;;;;;;12.40;6.30;;;;;;;6.50;100.00;101011.14;105976;1251;72574;-75
2024/04/05 02:29:54;;;;;;;12.90;7.60;;;;;;;6.44;100.00;101013.73;105827;1250;63913;-75
2024/04/05 02:32:22;;;;;;;14.20;7.90;;;;;;;6.41;100.00;101011.64;105930;1251;72672;-75
2024/04/05 02:34:49;;;;;;;10.00;6.30;;;;;;;6.35;100.00;101012.39;105869;1254;60857;-72
2024/04/05 02:37:15;;;;;;;11.10;6.30;;;;;;;6.31;100.00;101013.04;105893;1251;60476;-75
2024/04/05 02:39:43;;;;;;;9.80;5.50;;;;;;;6.25;100.00;101015.15;105839;1250;60636;-76
2024/04/05 02:42:10;;;;;;;12.00;5.20;;;;;;;6.18;100.00;101016.27;106194;1251;63843;-73
2024/04/05 02:44:37;;;;;;;8.60;5.50;;;;;;;6.13;100.00;101022.87;105962;1251;71763;-76
2024/04/05 02:47:04;;;;;;;9.10;5.70;;;;;;;6.08;100.00;101019.40;105907;1254;61001;-75
2024/04/05 02:49:30;;;;;;;11.00;6.70;;;;;;;6.02;100.00;101026.36;105992;1251;60450;-75
2024/04/05 02:51:57;;;;;;;12.50;6.30;;;;;;;5.98;100.00;101026.48;106072;1251;60425;-74
2024/04/05 02:54:23;;;;;;;17.20;8.10;;;;;;;5.95;100.00;101026.25;106012;1254;63845;-75
2024/04/05 02:56:51;;;;;;;17.10;9.00;;;;;;;5.93;100.00;101027.00;105952;1251;72658;-75
2024/04/05 02:59:17;;;;;;;25.60;12.40;;;;;;;5.91;100.00;101031.58;105910;1254;60984;-75
2024/04/05 03:01:44;;;;;;;23.10;11.80;;;;;;;5.89;100.00;101031.99;105972;1250;60483;-75
2024/04/05 03:04:11;;;;;;;18.40;8.60;;;;;;;5.86;100.00;101038.33;105935;1254;73827;-76
2024/04/05 03:06:37;;;;;;;17.80;6.40;;;;;;;5.82;100.00;101038.48;105922;1254;64349;-76
2024/04/05 03:09:04;;;;;;;13.20;6.50;;;;;;;5.77;100.00;101040.02;105956;1251;72421;-75
2024/04/05 03:11:31;;;;;;;11.90;6.00;;;;;;;5.73;100.00;101045.89;105959;1254;61285;-74
2024/04/05 03:13:57;;;;;;;15.40;10.40;;;;;;;5.68;100.00;101048.48;105974;1251;60407;-76
2024/04/05 03:16:24;;;;;;;9.30;6.60;;;;;;;5.61;100.00;101050.08;105895;1251;74145;-75
2024/04/05 03:18:51;;;;;;;12.20;8.60;;;;;;;5.57;100.00;101048.30;105825;1254;62385;-75
2024/04/05 03:21:18;;;;;;;9.90;5.50;;;;;;;5.52;100.00;101048.47;105863;1250;71129;-78
2024/04/05 03:23:45;;;;;;;17.00;8.90;;;;;;;5.49;100.00;101051.35;105898;1254;61114;-75
2024/04/05 03:26:12;;;;;;;17.30;7.10;;;;;;;5.45;100.00;101049.05;106181;1251;60479;-73
2024/04/05 03:28:39;;;;;;;8.80;5.30;;;;;;;5.44;100.00;101052.70;105984;1254;73790;-75
2024/04/05 03:31:06;;;;;;;5.10;3.70;;;;;;;5.43;100.00;101056.57;106861;1254;63925;-75
2024/04/05 03:33:33;;;;;;;7.60;4.70;;;;;;;5.41;100.00;101061.48;105862;1250;72713;-76
2024/04/05 03:36:04;;;;;;;15.30;5.40;;;;;;;5.38;100.00;101062.77;105979;1250;60368;-75
2024/04/05 03:38:30;;;;;;;17.80;5.40;;;;;;;5.38;100.00;101065.02;105984;1250;60531;-75
2024/04/05 03:40:57;;;;;;;6.10;4.30;;;;;;;5.38;100.00;101067.27;105975;1250;60470;-73
2024/04/05 03:43:23;;;;;;;5.30;4.10;;;;;;;5.42;100.00;101070.30;105949;1251;60514;-73
2024/04/05 03:45:50;;;;;;;4.80;4.00;;;;;;;5.44;100.00;101069.54;105859;1251;72811;-75
2024/04/05 03:48:17;;;;;;;4.90;4.10;;;;;;;5.45;100.00;101073.83;105829;1254;61789;-76
2024/04/05 03:50:44;;;;;;;6.60;4.80;;;;;;;5.47;100.00;101077.77;105798;1250;61356;-76
2024/04/05 03:53:10;;;;;;;7.00;3.20;;;;;;;5.48;100.00;101080.86;106003;1250;61289;-76
2024/04/05 03:55:37;;;;;;;5.50;3.20;;;;;;;5.50;100.00;101081.83;105823;1251;61334;-75
2024/04/05 03:58:04;;;;;;;6.40;4.20;;;;;;;5.52;100.00;101082.95;105921;1251;72508;-76
2024/04/05 04:00:32;;;;;;;5.00;3.80;;;;;;;5.53;100.00;101084.48;105812;1254;61167;-73
2024/04/05 04:02:59;;;;;;;8.60;4.20;;;;;;;5.53;100.00;101082.44;105938;1254;61173;-74
2024/04/05 04:05:26;;;;;;;6.70;4.40;;;;;;;5.58;100.00;101089.71;105910;1254;72390;-76
2024/04/05 04:07:52;;;;;;;7.10;5.50;;;;;;;5.59;100.00;101093.00;105982;1252;62714;-75
2024/04/05 04:10:22;;;;;;;4.50;4.10;;;;;;;5.60;100.00;101093.48;106001;1251;71294;-73
2024/04/05 04:12:49;;;;;;;4.30;3.90;;;;;;;5.60;100.00;101093.48;105916;1250;61112;-74
2024/04/05 04:15:16;;;;;;;5.60;3.60;;;;;;;5.60;100.00;101092.08;105930;1254;61215;-76
2024/04/05 04:17:43;;;;;;;5.50;3.90;;;;;;;5.60;100.00;101092.95;105949;1252;74846;-75
2024/04/05 04:20:09;;;;;;;3.40;3.10;;;;;;;5.61;100.00;101098.46;105999;1251;61223;-75
2024/04/05 04:22:36;;;;;;;5.40;4.00;;;;;;;5.65;100.00;101100.42;105855;1254;72432;-76
2024/04/05 04:25:03;;;;;;;4.10;3.70;;;;;;;5.71;100.00;101100.92;105942;1254;61331;-76
2024/04/05 04:27:31;;;;;;;7.70;3.40;;;;;;;5.75;100.00;101102.38;105804;1250;61542;-78
2024/04/05 04:29:58;;;;;;;3.20;2.90;;;;;;;5.77;100.00;101104.54;105873;1251;74690;-76
2024/04/05 04:32:25;;;;;;;4.50;3.00;;;;;;;5.81;100.00;101110.49;105938;1253;63554;-75
2024/04/05 04:34:52;;;;;;;4.50;3.00;;;;;;;5.87;100.00;101114.31;105824;1250;72698;-76
2024/04/05 04:37:20;;;;;;;3.50;3.20;;;;;;;5.94;100.00;101116.70;105823;1254;61183;-76
2024/04/05 04:39:46;;;;;;;4.00;2.90;;;;;;;5.99;100.00;101120.52;106083;1250;61253;-76
2024/04/05 04:42:13;;;;;;;4.00;3.10;;;;;;;6.09;100.00;101125.77;105934;1252;74632;-76
2024/04/05 04:44:40;;;;;;;4.00;3.50;;;;;;;6.19;100.00;101125.94;105983;1254;63750;-75
2024/04/05 04:47:07;;;;;;;5.90;3.30;;;;;;;6.34;100.00;101130.31;105954;1254;72625;-77
2024/04/05 04:49:33;;;;;;;6.30;3.60;;;;;;;6.54;100.00;101131.88;105874;1254;61241;-77
2024/04/05 04:52:00;;;;;;;6.30;3.20;;;;;;;6.80;100.00;101135.13;105841;1250;61241;-77
2024/04/05 04:54:28;;;;;;;3.50;3.10;;;;;;;7.08;100.00;101133.92;106249;1251;75447;-75
2024/04/05 04:56:55;;;;;;;4.40;3.40;;;;;;;7.36;100.00;101130.63;106033;1254;62829;-78
2024/04/05 04:59:28;;;;;;;5.40;3.60;;;;;;;7.65;100.00;101131.23;105963;1251;71356;-74
2024/04/05 05:01:56;;;;;;;4.60;3.50;;;;;;;7.97;100.00;101131.52;106160;1254;61350;-75
2024/04/05 05:04:23;;;;;;;5.80;3.00;;;;;;;8.36;100.00;101132.51;106160;1250;61248;-76
2024/04/05 05:06:50;;;;;;;4.50;3.00;;;;;;;8.75;100.00;101129.81;105912;1250;73312;-76
2024/04/05 05:09:17;;;;;;;4.20;3.60;;;;;;;9.10;98.82;101130.48;106041;1251;62659;-78
2024/04/05 05:11:45;;;;;;;5.70;4.00;;;;;;;9.38;91.14;101129.71;105892;1251;72584;-76
2024/04/05 05:14:11;;;;;;;4.30;3.80;;;;;;;9.50;87.75;101134.76;106047;1254;61219;-76
2024/04/05 05:16:40;;;;;;;5.00;3.40;;;;;;;9.62;86.52;101136.11;105970;1250;61249;-76
2024/04/05 05:19:07;;;;;;;5.50;3.30;;;;;;;9.75;84.29;101137.91;106027;1250;75656;-76
2024/04/05 05:21:34;;;;;;;4.20;2.90;;;;;;;10.01;82.53;101135.45;105932;1254;63605;-76
2024/04/05 05:24:02;;;;;;;4.00;3.20;;;;;;;10.45;79.26;101136.58;105897;1254;71862;-77
2024/04/05 05:26:29;;;;;;;3.40;2.90;;;;;;;10.96;72.78;101135.88;105791;1254;61353;-76
2024/04/05 05:28:56;;;;;;;4.50;3.20;;;;;;;11.48;68.63;101142.27;105919;1254;61267;-76
2024/04/05 05:31:23;;;;;;;3.60;3.00;;;;;;;12.05;65.27;101145.80;105949;1254;73798;-78
2024/04/05 05:33:49;;;;;;;3.60;2.90;;;;;;;12.53;58.71;101145.80;105863;1253;63779;-75
2024/04/05 05:36:17;;;;;;;4.30;3.00;;;;;;;12.86;55.14;101147.44;105950;1250;72488;-78
2024/04/05 05:38:44;;;;;;;3.20;2.80;;;;;;;13.26;53.83;101150.82;106239;1253;61135;-77
2024/04/05 05:41:10;;;;;;;3.40;2.50;;;;;;;13.68;51.18;101150.08;105906;1254;61251;-76
2024/04/05 05:43:37;;;;;;;6.00;3.00;;;;;;;14.11;50.17;101149.91;106076;1251;74674;-78
2024/04/05 05:46:05;;;;;;;3.30;2.90;;;;;;;14.60;46.45;101152.09;105885;1251;63784;-78
2024/04/05 05:48:32;;;;;;;2.40;2.20;;;;;;;14.97;45.42;101153.08;105928;1251;72647;-76
2024/04/05 05:50:59;;;;;;;4.00;3.00;;;;;;;15.33;44.72;101155.14;106040;1250;61329;-78
2024/04/05 05:53:27;;;;;;;2.70;2.50;;;;;;;15.67;43.30;101159.73;105952;1250;61346;-76
2024/04/05 05:55:54;;;;;;;2.60;2.40;;;;;;;16.12;42.50;101159.80;106070;1250;74565;-77
2024/04/05 05:58:21;;;;;;;4.60;3.40;;;;;;;16.44;41.17;101165.48;105954;1252;65114;-76
2024/04/05 06:00:49;;;;;;;3.70;2.70;;;;;;;16.67;40.48;101161.98;106012;1251;72788;-77
2024/04/05 06:03:15;;;;;;;4.10;3.30;;;;;;;16.92;39.76;101159.75;106055;1254;61330;-78
2024/04/05 06:05:51;;;;;;;3.80;3.10;;;;;;;17.13;39.07;101158.77;105901;1250;61212;-77
2024/04/05 06:08:18;;;;;;;4.10;3.10;;;;;;;17.30;38.47;101160.97;105993;1250;74494;-77
2024/04/05 06:10:58;;;;;;;4.60;2.60;;;;;;;17.52;37.74;101163.96;105960;1254;63702;-78
2024/04/05 06:13:25;;;;;;;3.80;2.90;;;;;;;17.52;36.94;101160.23;105996;1251;73972;-75
2024/04/05 06:15:54;;;;;;;2.40;2.00;;;;;;;17.51;37.51;101163.94;105897;1254;61496;-75
2024/04/05 06:18:26;;;;;;;6.10;2.00;;;;;;;17.56;37.01;101162.04;105936;1254;61165;-77
2024/04/05 06:20:56;;;;;;;3.80;3.00;;;;;;;17.73;37.37;101167.61;106017;1254;74886;-75
2024/04/05 06:23:24;;;;;;;4.80;2.40;;;;;;;17.93;36.75;101173.60;106280;1250;65112;-75
2024/04/05 06:25:52;;;;;;;2.90;2.00;;;;;;;18.08;36.01;101176.66;109269;1250;72665;-75
2024/04/05 06:28:21;;;;;;;2.20;2.00;;;;;;;18.03;35.87;101171.73;108196;1254;61356;-75
2024/04/05 06:30:47;;;;;;;2.50;2.30;;;;;;;18.24;35.70;101172.81;107310;1253;61253;-79
2024/04/05 06:33:14;;;;;;;3.00;2.50;;;;;;;18.50;35.18;101178.73;105897;1250;74489;-79
2024/04/05 06:35:41;;;;;;;1.90;1.60;;;;;;;18.61;34.87;101180.34;106018;1254;63710;-76
2024/04/05 06:38:08;;;;;;;1.80;1.70;;;;;;;18.46;34.11;101179.59;105962;1251;73233;-75
2024/04/05 06:40:36;;;;;;;2.00;1.70;;;;;;;18.24;34.15;101178.85;105957;1250;61167;-75
2024/04/05 06:43:06;;;;;;;3.80;1.90;;;;;;;18.09;34.74;101177.98;105971;1250;61861;-77
2024/04/05 06:45:33;;;;;;;2.70;1.80;;;;;;;17.91;34.45;101177.98;105836;1252;74942;-76
2024/04/05 06:48:01;;;;;;;1.70;1.60;;;;;;;17.59;34.49;101179.13;105955;1254;63376;-75
2024/04/05 06:50:31;;;;;;;2.00;1.90;;;;;;;17.41;34.80;101178.70;105860;1250;73881;-75
2024/04/05 06:52:58;;;;;;;5.00;1.80;;;;;;;17.50;35.05;101175.35;105968;1254;61314;-77
2024/04/05 06:55:26;;;;;;;1.60;1.50;;;;;;;17.60;35.08;101175.54;106013;1251;61571;-76
2024/04/05 06:57:54;;;;;;;2.20;1.60;;;;;;;17.67;34.90;101177.30;105868;1254;74919;-75
2024/04/05 07:00:21;;;;;;;2.30;2.10;;;;;;;17.66;34.53;101178.80;105814;1254;64090;-76
2024/04/05 07:02:48;;;;;;;4.40;2.20;;;;;;;17.67;34.08;101178.17;105969;1251;73658;-73
2024/04/05 07:05:15;;;;;;;1.90;1.60;;;;;;;17.58;34.26;101181.76;105902;1253;61157;-76
2024/04/05 07:07:41;;;;;;;4.10;1.70;;;;;;;17.69;34.28;101178.70;105996;1250;61221;-76
2024/04/05 07:10:09;;;;;;;2.40;1.50;;;;;;;17.63;34.09;101181.52;105948;1250;74463;-75
2024/04/05 07:12:36;;;;;;;2.20;2.00;;;;;;;17.50;34.69;101184.65;105995;1254;64984;-77
2024/04/05 07:15:05;;;;;;;1.60;1.50;;;;;;;17.67;34.59;101186.50;106008;1250;72695;-77
2024/04/05 07:17:32;;;;;;;1.60;1.50;;;;;;;17.85;34.88;101182.01;105929;1254;61227;-76
2024/04/05 07:19:59;;;;;;;2.60;1.90;;;;;;;18.26;34.64;101187.36;105874;1250;61324;-76
2024/04/05 07:22:27;;;;;;;2.30;1.40;;;;;;;18.62;34.20;101187.33;105978;1255;74428;-79
2024/04/05 07:24:54;;;;;;;1.50;1.40;;;;;;;18.67;33.35;101185.66;106006;1254;63755;-77
2024/04/05 07:27:22;;;;;;;2.00;1.30;;;;;;;18.57;33.21;101189.54;105871;1250;71955;-77
2024/04/05 07:31:28;;;;;;;1.60;1.50;;;;;;;18.38;33.32;101190.05;102158;1293;603215;-78
2024/04/05 07:33:55;;;;;;;4.80;1.60;;;;;;;18.40;33.57;101190.06;104867;1274;60326;-77
2024/04/05 07:36:21;;;;;;;2.80;1.60;;;;;;;18.60;33.44;101191.73;104823;1267;59668;-77
2024/04/05 07:38:49;;;;;;;1.60;1.50;;;;;;;18.59;33.01;101192.85;104798;1267;72064;-77
2024/04/05 07:41:17;;;;;;;1.60;1.50;;;;;;;18.42;33.40;101194.46;104858;1271;64242;-78
2024/04/05 07:43:44;;;;;;;1.70;1.60;;;;;;;18.25;33.77;101203.73;104696;1264;219388;-77
2024/04/05 07:46:11;;;;;;;2.20;1.80;;;;;;;18.19;33.82;101205.40;105032;1269;59725;-76
2024/04/05 07:48:38;;;;;;;2.50;1.90;;;;;;;18.16;33.73;101206.77;105714;1259;60125;-75
2024/04/05 07:51:05;;;;;;;4.70;1.50;;;;;;;18.01;33.23;101198.05;105825;1257;71949;-77
2024/04/05 07:53:33;;;;;;;1.90;1.50;;;;;;;17.75;33.79;101202.78;105702;1259;64871;-77
2024/04/05 07:56:00;;;;;;;3.10;1.50;;;;;;;17.67;34.15;101201.55;105696;1258;72705;-76
2024/04/05 07:58:26;;;;;;;6.20;2.00;;;;;;;17.83;34.64;101198.63;105557;1261;61744;-78
2024/04/05 08:00:53;;;;;;;3.50;1.70;;;;;;;18.11;34.09;101203.62;105542;1260;60450;-77
2024/04/05 08:03:20;;;;;;;2.40;1.40;;;;;;;18.25;33.64;101207.27;105676;1254;72692;-77
2024/04/05 08:05:47;;;;;;;1.20;1.10;;;;;;;18.26;33.55;101202.04;105666;1258;65041;-78
2024/04/05 08:08:15;;;;;;;2.80;1.30;;;;;;;18.15;33.75;101205.42;105661;1258;73741;-78
2024/04/05 08:10:41;;;;;;;1.50;1.30;;;;;;;18.04;34.12;101204.38;105676;1257;60543;-78
2024/04/05 08:13:08;;;;;;;1.50;1.40;;;;;;;17.96;34.29;101204.69;105688;1258;60513;-78
2024/04/05 08:15:36;;;;;;;2.20;1.70;;;;;;;17.87;34.31;101204.02;105687;1257;72161;-76
2024/04/05 08:18:03;;;;;;;4.00;1.10;;;;;;;17.85;34.94;101199.41;105745;1251;63873;-78
2024/04/05 08:20:31;;;;;;;1.90;1.30;;;;;;;17.96;34.72;101200.80;105738;1254;73736;-78
2024/04/05 08:22:58;;;;;;;2.10;1.80;;;;;;;18.10;34.42;101201.21;105799;1256;61283;-78
2024/04/05 08:25:25;;;;;;;2.30;1.70;;;;;;;18.47;34.49;101203.80;105831;1256;60574;-78
2024/04/05 08:27:53;;;;;;;1.80;1.30;;;;;;;18.96;33.52;101204.80;105811;1254;73723;-78
2024/04/05 08:30:20;;;;;;;1.80;1.70;;;;;;;19.37;32.72;101197.19;105819;1253;64108;-77
2024/04/05 08:32:49;;;;;;;2.10;1.50;;;;;;;19.43;31.98;101199.66;105904;1255;72793;-76
2024/04/05 08:35:16;;;;;;;2.80;1.20;;;;;;;19.48;32.04;101195.36;105993;1255;60654;-78
2024/04/05 08:37:44;;;;;;;1.60;1.50;;;;;;;19.56;31.59;101197.27;105825;1254;61305;-77
2024/04/05 08:40:11;;;;;;;1.60;1.30;;;;;;;19.72;31.37;101200.52;105698;1252;73930;-78
2024/04/05 08:42:39;;;;;;;1.50;1.10;;;;;;;19.92;31.08;101198.39;105758;1258;64939;-77
2024/04/05 08:45:10;;;;;;;0.90;0.80;;;;;;;19.98;30.58;101197.46;105743;1257;72050;-78
2024/04/05 08:47:38;;;;;;;2.70;1.30;;;;;;;19.86;30.81;101193.86;105675;1253;60454;-77
2024/04/05 08:50:08;;;;;;;1.80;1.60;;;;;;;19.89;31.40;101192.19;105655;1253;60559;-77
2024/04/05 08:52:35;;;;;;;3.00;2.20;;;;;;;20.22;31.43;101191.86;105739;1256;74085;-76
2024/04/05 08:55:02;;;;;;;1.20;1.10;;;;;;;20.53;30.71;101189.91;105659;1257;64254;-76
2024/04/05 08:57:34;;;;;;;1.70;1.40;;;;;;;20.85;30.28;101196.90;105802;1256;72935;-75
2024/04/05 09:00:01;;;;;;;1.00;0.90;;;;;;;21.18;30.16;101193.90;105700;1257;60636;-77
2024/04/05 09:02:29;;;;;;;3.50;1.40;;;;;;;21.58;30.27;101194.21;105838;1254;60441;-79
2024/04/05 09:04:56;;;;;;;1.40;1.00;;;;;;;21.84;29.37;101193.11;105931;1257;72296;-79
2024/04/05 09:07:24;;;;;;;2.00;1.40;;;;;;;22.02;28.82;101192.41;105859;1257;64042;-78
2024/04/05 09:09:51;;;;;;;3.10;1.40;;;;;;;22.12;28.39;101190.61;105800;1252;71511;-77
2024/04/05 09:12:26;;;;;;;2.00;0.90;;;;;;;22.20;28.75;101194.48;105841;1254;60483;-75
2024/04/05 09:14:58;;;;;;;2.00;1.30;;;;;;;22.40;28.53;101196.24;105849;1253;60549;-77
2024/04/05 09:17:25;;;;;;;1.30;1.10;;;;;;;22.59;28.29;101194.88;105882;1254;72792;-74
2024/04/05 09:20:09;;;;;;;1.80;1.30;;;;;;;22.60;27.62;101194.99;105868;1254;63942;-76
2024/04/05 09:22:36;;;;;;;3.10;1.20;;;;;;;22.55;27.68;101192.77;105726;1253;73080;-76
2024/04/05 09:25:03;;;;;;;2.90;1.20;;;;;;;22.56;27.75;101188.22;105774;1256;60654;-76
2024/04/05 09:27:31;;;;;;;0.70;0.60;;;;;;;22.69;27.72;101190.41;105882;1257;61430;-74
2024/04/05 09:30:02;;;;;;;1.40;1.20;;;;;;;22.87;27.56;101189.17;106344;1254;75103;-77
2024/04/05 09:32:29;;;;;;;1.10;1.10;;;;;;;23.07;27.44;101185.67;108088;1253;64043;-77
2024/04/05 09:34:57;;;;;;;1.70;0.90;;;;;;;23.18;27.28;101185.66;107449;1252;71076;-76
2024/04/05 09:37:27;;;;;;;1.20;1.10;;;;;;;23.31;27.01;101182.84;106253;1257;60412;-76
2024/04/05 09:39:53;;;;;;;0.90;0.90;;;;;;;23.39;26.04;101182.55;105844;1254;60500;-78
2024/04/05 09:42:23;;;;;;;4.20;0.80;;;;;;;23.21;25.96;101185.50;105754;1256;73102;-78
2024/04/05 09:44:55;;;;;;;1.20;1.10;;;;;;;23.00;26.33;101184.99;105773;1257;64145;-78
2024/04/05 09:47:23;;;;;;;0.70;0.70;;;;;;;22.84;26.45;101189.28;105818;1253;73160;-80
2024/04/05 09:49:50;;;;;;;1.80;1.10;;;;;;;22.89;26.32;101187.34;105800;1253;60556;-77
2024/04/05 09:52:24;;;;;;;1.20;1.00;;;;;;;23.11;26.06;101189.92;105810;1258;60445;-77
2024/04/05 09:54:59;;;;;;;1.20;1.10;;;;;;;23.42;25.94;101181.83;105739;1257;74263;-77
2024/04/05 09:57:29;;;;;;;1.30;0.90;;;;;;;23.51;26.15;101180.91;105789;1253;62224;-79
2024/04/05 09:59:56;;;;;;;2.10;1.70;;;;;;;23.46;26.28;101184.66;105722;1253;71874;-79
2024/04/05 10:02:23;;;;;;;1.90;1.40;;;;;;;23.54;26.29;101190.37;105643;1258;61481;-79
2024/04/05 10:04:50;;;;;;;2.40;0.90;;;;;;;23.67;26.82;101190.58;105770;1254;60464;-78
2024/04/05 10:07:25;;;;;;;1.00;1.00;;;;;;;23.93;26.13;101191.76;105901;1253;73844;-79
2024/04/05 10:09:52;;;;;;;1.50;1.10;;;;;;;24.14;25.93;101187.34;105869;1257;65121;-77
2024/04/05 10:12:21;;;;;;;2.50;1.30;;;;;;;24.18;25.64;101186.75;105775;1254;70552;-78
2024/04/05 10:14:52;;;;;;;1.60;0.80;;;;;;;24.18;25.62;101182.66;105731;1266;60535;-77
2024/04/05 10:17:26;;;;;;;2.80;0.90;;;;;;;24.24;25.59;101186.81;105830;1253;61665;-76
2024/04/05 10:20:06;;;;;;;1.70;1.10;;;;;;;24.31;25.36;101193.01;105766;1257;71996;-77
2024/04/05 10:22:36;;;;;;;1.30;0.80;;;;;;;24.31;25.23;101189.05;105717;1257;63227;-77
2024/04/05 10:25:03;;;;;;;1.90;0.90;;;;;;;24.29;25.43;101190.23;105687;1254;71657;-80
2024/04/05 10:27:31;;;;;;;1.40;0.60;;;;;;;24.33;25.40;101193.17;105843;1257;60516;-78
2024/04/05 10:30:02;;;;;;;3.40;0.90;;;;;;;24.24;24.74;101186.88;105751;1254;61281;-79
2024/04/05 10:32:32;;;;;;;1.30;0.90;;;;;;;24.11;25.12;101188.98;105712;1252;72791;-77
2024/04/05 10:35:06;;;;;;;1.10;0.80;;;;;;;24.15;25.40;101192.11;105794;1257;62123;-77
2024/04/05 10:37:35;;;;;;;1.40;0.80;;;;;;;24.25;25.26;101194.61;105734;1253;72652;-75
2024/04/05 10:40:06;;;;;;;3.30;0.90;;;;;;;24.17;24.99;101187.71;105895;1257;61107;-78
2024/04/05 10:42:33;;;;;;;0.90;0.80;;;;;;;24.05;25.24;101188.92;105965;1253;60582;-78
2024/04/05 10:45:00;;;;;;;1.50;0.90;;;;;;;24.11;24.39;101187.88;105852;1254;73717;-77
2024/04/05 10:47:30;;;;;;;10.30;1.90;;;;;;;23.89;24.67;101194.55;105932;1255;62862;-78
2024/04/05 10:50:08;;;;;;;3.60;0.90;;;;;;;23.66;25.18;101194.31;105813;1253;73501;-77
2024/04/05 10:52:36;;;;;;;0.90;0.80;;;;;;;23.70;25.30;101194.91;105837;1257;60531;-78
2024/04/05 10:55:10;;;;;;;0.80;0.50;;;;;;;23.92;25.30;101197.74;105859;1257;60432;-79
2024/04/05 10:57:37;;;;;;;1.60;0.80;;;;;;;24.10;25.02;101195.11;105765;1257;75059;-76
2024/04/05 11:00:11;;;;;;;1.00;0.70;;;;;;;24.25;25.25;101189.35;105657;1253;63111;-76
2024/04/05 11:02:42;;;;;;;2.10;0.80;;;;;;;24.40;24.78;101193.30;105634;1253;72020;-77
2024/04/05 11:05:10;;;;;;;1.90;1.00;;;;;;;24.54;24.49;101192.73;105727;1253;61566;-76
2024/04/05 11:07:40;;;;;;;1.40;0.80;;;;;;;24.56;24.29;101189.02;105835;1253;60420;-76
2024/04/05 11:10:16;;;;;;;3.30;0.90;;;;;;;24.58;24.58;101189.16;105760;1256;74270;-76
2024/04/05 11:12:58;;;;;;;5.50;1.20;;;;;;;24.62;24.38;101190.42;105898;1257;63101;-76
2024/04/05 11:15:25;;;;;;;0.90;0.70;;;;;;;24.44;24.09;101185.33;105849;1257;74224;-79
2024/04/05 11:18:01;;;;;;;1.00;0.80;;;;;;;24.12;24.35;101182.11;105747;1256;60397;-75